Time;durP1;ratioP1;P1;durP2;ratioP2;P2;SDS_P1;SDS_P2;PMS_P1;PMS_P2;Temp;Humidity;BMP_temperature;BMP_pressure;BME280_temperature;BME280_humidity;BME280_pressure;Samples;Min_cycle;Max_cycle;Signal;HPM_P1;HPM_P2
2022/12/10 00:01:47;;;;;;;45.35;15.55;;;0.70;99.90;;;;;;5011501;28;21117;-72
2022/12/10 00:04:13;;;;;;;40.28;13.48;;;0.70;99.90;;;;;;5007888;28;20022;-71
2022/12/10 00:06:41;;;;;;;43.90;14.50;;;0.70;99.90;;;;;;5014195;28;20056;-72
2022/12/10 00:09:11;;;;;;;52.72;15.48;;;0.70;99.90;;;;;;5020862;28;20549;-71
2022/12/10 00:11:37;;;;;;;38.88;14.90;;;0.60;99.90;;;;;;5023211;28;20033;-72
2022/12/10 00:14:03;;;;;;;45.80;14.20;;;0.60;99.90;;;;;;5022488;28;20037;-71
2022/12/10 00:16:30;;;;;;;43.70;15.35;;;0.60;99.90;;;;;;5025044;28;20037;-71
2022/12/10 00:18:56;;;;;;;39.97;13.85;;;0.60;99.90;;;;;;5007869;28;20032;-71
2022/12/10 00:21:25;;;;;;;49.17;15.13;;;0.60;99.90;;;;;;5004203;28;20037;-71
2022/12/10 00:23:51;;;;;;;45.20;13.90;;;0.50;99.90;;;;;;5014040;28;20025;-73
2022/12/10 00:26:20;;;;;;;41.58;15.48;;;0.60;99.90;;;;;;4999389;28;20120;-71
2022/12/10 00:28:46;;;;;;;39.60;13.90;;;0.60;99.90;;;;;;5000893;28;20025;-71
2022/12/10 00:31:14;;;;;;;50.80;16.88;;;0.60;99.90;;;;;;5020834;28;20076;-71
2022/12/10 00:33:42;;;;;;;44.88;14.43;;;0.70;99.90;;;;;;5019630;28;20551;-71
2022/12/10 00:36:14;;;;;;;43.97;14.63;;;0.60;99.90;;;;;;5019392;28;20116;-71
2022/12/10 00:38:41;;;;;;;51.85;16.67;;;0.50;99.90;;;;;;5019334;28;20094;-71
2022/12/10 00:41:07;;;;;;;43.13;14.63;;;0.50;99.90;;;;;;5001317;28;20044;-71
2022/12/10 00:43:33;;;;;;;55.08;17.02;;;0.50;99.90;;;;;;5000399;28;20030;-71
2022/12/10 00:45:59;;;;;;;38.45;14.27;;;0.60;99.90;;;;;;5020429;28;20040;-71
2022/12/10 00:48:25;;;;;;;40.08;14.63;;;0.60;99.90;;;;;;4999815;28;20030;-71
2022/12/10 00:50:59;;;;;;;52.65;15.68;;;0.60;99.90;;;;;;4999595;28;20041;-71
2022/12/10 00:53:26;;;;;;;42.08;13.00;;;0.60;99.90;;;;;;5013638;28;20029;-71
2022/12/10 00:55:52;;;;;;;58.08;15.95;;;0.60;99.90;;;;;;5020858;28;20057;-71
2022/12/10 00:58:17;;;;;;;59.17;16.55;;;0.60;99.90;;;;;;5016381;28;20072;-72
2022/12/10 01:00:43;;;;;;;52.83;15.63;;;0.60;99.90;;;;;;5017691;28;20044;-71
2022/12/10 01:03:09;;;;;;;46.60;14.95;;;0.60;99.90;;;;;;5021710;28;20064;-71
2022/12/10 01:05:34;;;;;;;58.30;14.40;;;0.60;99.90;;;;;;5020963;28;20032;-70
2022/12/10 01:08:00;;;;;;;63.55;15.23;;;0.60;99.90;;;;;;4999588;28;20441;-71
2022/12/10 01:10:25;;;;;;;48.75;14.80;;;0.60;99.90;;;;;;5000112;28;20034;-71
2022/12/10 01:12:51;;;;;;;63.15;15.00;;;0.60;99.90;;;;;;5020161;28;20036;-71
2022/12/10 01:15:16;;;;;;;82.20;16.45;;;0.60;99.90;;;;;;5003007;28;20053;-73
2022/12/10 01:17:42;;;;;;;92.43;16.65;;;0.60;99.90;;;;;;5013673;28;20042;-71
2022/12/10 01:20:08;;;;;;;60.78;15.75;;;0.60;99.90;;;;;;5019851;28;20045;-71
2022/12/10 01:22:33;;;;;;;60.78;16.73;;;0.50;99.90;;;;;;5017267;28;20049;-71
2022/12/10 01:24:59;;;;;;;41.90;14.20;;;0.50;99.90;;;;;;4999546;28;20494;-71
2022/12/10 01:27:24;;;;;;;102.43;18.33;;;0.50;99.90;;;;;;5002008;28;20499;-70
2022/12/10 01:29:50;;;;;;;64.30;16.23;;;0.50;99.90;;;;;;5016713;28;20033;-71
2022/12/10 01:32:16;;;;;;;90.35;17.70;;;0.50;99.90;;;;;;5013582;28;20033;-71
2022/12/10 01:34:41;;;;;;;62.17;17.13;;;0.50;99.90;;;;;;5017800;28;20740;-71
2022/12/10 01:37:07;;;;;;;57.38;17.92;;;0.60;99.90;;;;;;5030991;28;20038;-72
2022/12/10 01:39:32;;;;;;;62.97;16.35;;;0.60;99.90;;;;;;5009651;28;20041;-71
2022/12/10 01:41:59;;;;;;;82.78;20.02;;;0.60;99.90;;;;;;5030988;28;20029;-71
2022/12/10 01:44:25;;;;;;;75.35;18.42;;;0.60;99.90;;;;;;5008394;28;20097;-70
2022/12/10 01:46:53;;;;;;;65.63;17.02;;;0.60;99.90;;;;;;5021499;28;20049;-71
2022/12/10 01:49:31;;;;;;;68.70;19.42;;;0.60;99.90;;;;;;5030149;28;20046;-71
2022/12/10 01:51:57;;;;;;;78.95;20.02;;;0.70;99.90;;;;;;5023858;28;20038;-71
2022/12/10 01:54:29;;;;;;;76.68;19.83;;;0.70;99.90;;;;;;5014850;28;20037;-71
2022/12/10 01:57:02;;;;;;;68.32;19.23;;;0.60;99.90;;;;;;5003812;28;20042;-71
2022/12/10 01:59:29;;;;;;;72.10;18.35;;;0.60;99.90;;;;;;4997823;28;20049;-71
2022/12/10 02:02:09;;;;;;;80.22;18.00;;;0.60;99.90;;;;;;5016136;28;20037;-71
2022/12/10 02:04:47;;;;;;;106.30;21.13;;;0.70;99.90;;;;;;5016923;28;20071;-70
2022/12/10 02:07:31;;;;;;;79.25;20.00;;;0.70;99.90;;;;;;5003002;28;20033;-70
2022/12/10 02:10:22;;;;;;;75.88;18.10;;;0.60;99.90;;;;;;4997523;28;20040;-71
2022/12/10 02:13:03;;;;;;;89.47;18.98;;;0.70;99.90;;;;;;5016995;28;20556;-71
2022/12/10 02:15:33;;;;;;;70.38;17.67;;;0.70;99.90;;;;;;5015576;28;20399;-71
2022/12/10 02:18:17;;;;;;;85.88;19.42;;;0.70;99.90;;;;;;4997185;28;20216;-71
2022/12/10 02:20:54;;;;;;;156.63;23.13;;;0.70;99.90;;;;;;5011632;28;20034;-71
2022/12/10 02:23:27;;;;;;;87.25;20.85;;;0.70;99.90;;;;;;5016829;28;20060;-71
2022/12/10 02:26:06;;;;;;;121.97;20.08;;;0.80;99.90;;;;;;5018597;28;20545;-71
2022/12/10 02:28:54;;;;;;;140.95;23.10;;;0.80;99.90;;;;;;4999544;28;20034;-69
2022/12/10 02:31:26;;;;;;;105.03;20.00;;;0.80;99.90;;;;;;5002386;28;20038;-71
2022/12/10 02:33:57;;;;;;;116.40;22.33;;;0.80;99.90;;;;;;5015770;28;20125;-71
2022/12/10 02:36:25;;;;;;;146.43;23.13;;;0.80;99.90;;;;;;5019145;28;20037;-72
2022/12/10 02:38:52;;;;;;;112.95;21.42;;;0.80;99.90;;;;;;5015722;28;20052;-70
2022/12/10 02:41:23;;;;;;;138.52;21.95;;;0.80;99.90;;;;;;5019091;28;20095;-72
2022/12/10 02:43:52;;;;;;;105.55;21.98;;;0.80;99.90;;;;;;5015534;28;20026;-72
2022/12/10 02:46:19;;;;;;;103.03;23.77;;;0.80;99.90;;;;;;5015681;28;20034;-71
2022/12/10 02:48:46;;;;;;;94.80;21.30;;;0.80;99.90;;;;;;5001222;28;20048;-72
2022/12/10 02:51:12;;;;;;;81.05;21.20;;;0.80;99.90;;;;;;5012022;28;20569;-70
2022/12/10 02:53:42;;;;;;;78.50;20.88;;;0.80;99.90;;;;;;5018217;28;20042;-70
2022/12/10 02:56:13;;;;;;;81.10;20.10;;;0.90;99.90;;;;;;4998235;28;20074;-70
2022/12/10 02:58:47;;;;;;;106.15;21.17;;;0.90;99.90;;;;;;5021093;28;20040;-71
2022/12/10 03:01:21;;;;;;;93.82;19.30;;;0.90;99.90;;;;;;4999993;28;20045;-71
2022/12/10 03:03:58;;;;;;;93.53;18.50;;;0.90;99.90;;;;;;5012214;28;20062;-71
2022/12/10 03:06:29;;;;;;;99.88;19.25;;;0.90;99.90;;;;;;4999857;28;20033;-71
2022/12/10 03:09:06;;;;;;;54.13;17.65;;;0.90;99.90;;;;;;5012530;28;20124;-71
2022/12/10 03:11:32;;;;;;;109.07;20.52;;;0.90;99.90;;;;;;5017920;28;20425;-71
2022/12/10 03:14:08;;;;;;;73.68;19.92;;;0.80;99.90;;;;;;4998791;28;20079;-71
2022/12/10 03:16:43;;;;;;;122.88;20.65;;;0.80;99.90;;;;;;5003193;28;20038;-71
2022/12/10 03:19:17;;;;;;;87.40;21.40;;;0.80;99.90;;;;;;5019583;28;20030;-71
2022/12/10 03:21:46;;;;;;;177.73;23.63;;;0.80;99.90;;;;;;4997496;28;20048;-71
2022/12/10 03:24:13;;;;;;;96.50;21.35;;;0.80;99.90;;;;;;5015846;28;20144;-71
2022/12/10 03:26:41;;;;;;;82.75;18.58;;;0.80;99.90;;;;;;5000818;28;20049;-71
2022/12/10 03:29:12;;;;;;;94.45;20.23;;;0.80;99.90;;;;;;5022730;28;20559;-71
2022/12/10 03:31:39;;;;;;;100.45;19.70;;;0.80;99.90;;;;;;5019259;28;20033;-70
2022/12/10 03:34:05;;;;;;;135.85;23.08;;;0.80;99.90;;;;;;5021778;28;20026;-71
2022/12/10 03:36:32;;;;;;;101.18;19.48;;;0.80;99.90;;;;;;5002105;28;20071;-71
2022/12/10 03:38:58;;;;;;;72.65;18.50;;;0.80;99.90;;;;;;5020883;28;20026;-71
2022/12/10 03:41:24;;;;;;;61.75;16.95;;;0.80;99.90;;;;;;5002887;28;20134;-71
2022/12/10 03:43:55;;;;;;;115.95;21.27;;;0.70;99.90;;;;;;5019508;28;20107;-72
2022/12/10 03:46:21;;;;;;;110.32;19.88;;;0.70;99.90;;;;;;5021102;28;20037;-71
2022/12/10 03:48:47;;;;;;;77.88;19.88;;;0.70;99.90;;;;;;5002002;28;20026;-72
2022/12/10 03:51:13;;;;;;;153.68;25.60;;;0.80;99.90;;;;;;5022590;28;20033;-71
2022/12/10 03:53:38;;;;;;;101.00;20.98;;;0.80;99.90;;;;;;5018175;28;20413;-71
2022/12/10 03:56:04;;;;;;;115.85;20.17;;;0.80;99.90;;;;;;5022099;28;20038;-71
2022/12/10 03:58:29;;;;;;;116.78;19.67;;;0.80;99.90;;;;;;5020754;28;20029;-71
2022/12/10 04:00:55;;;;;;;85.72;20.45;;;0.80;99.90;;;;;;5002325;28;20029;-72
2022/12/10 04:03:20;;;;;;;99.00;20.13;;;0.80;99.90;;;;;;5001795;28;20037;-71
2022/12/10 04:05:46;;;;;;;162.77;21.80;;;0.70;99.90;;;;;;5003144;28;20120;-72
2022/12/10 04:08:11;;;;;;;79.28;18.50;;;0.70;99.90;;;;;;5002260;28;20037;-71
2022/12/10 04:10:37;;;;;;;107.70;20.58;;;0.70;99.90;;;;;;5018357;28;20100;-71
2022/12/10 04:18:32;;;;;;;111.35;19.98;;;0.70;99.90;;;;;;5018612;28;20548;-71
2022/12/10 04:29:10;;;;;;;60.30;15.27;;;0.70;99.90;;;;;;5010679;28;20096;-71
2022/12/10 04:31:36;;;;;;;76.40;18.63;;;0.70;99.90;;;;;;5018215;28;20489;-71
2022/12/10 04:34:02;;;;;;;78.68;15.88;;;0.70;99.90;;;;;;5021089;28;20549;-70
2022/12/10 04:36:27;;;;;;;98.15;18.95;;;0.70;99.90;;;;;;5019574;28;20034;-71
2022/12/10 04:38:53;;;;;;;126.97;17.13;;;0.70;99.90;;;;;;5002477;28;20029;-71
2022/12/10 04:41:18;;;;;;;87.88;15.05;;;0.60;99.90;;;;;;5001943;28;20072;-73
2022/12/10 04:43:44;;;;;;;85.65;15.55;;;0.60;99.90;;;;;;4999849;28;20041;-71
2022/12/10 04:46:10;;;;;;;64.25;16.02;;;0.60;99.90;;;;;;5003933;28;20121;-71
2022/12/10 04:48:36;;;;;;;60.47;16.13;;;0.60;99.90;;;;;;5021070;28;20026;-71
2022/12/10 04:51:02;;;;;;;87.20;16.75;;;0.60;99.90;;;;;;5017614;28;20045;-71
2022/12/10 04:53:27;;;;;;;80.53;15.95;;;0.60;99.90;;;;;;5016525;28;20425;-71
2022/12/10 04:55:53;;;;;;;106.82;16.13;;;0.60;99.90;;;;;;5001604;28;20119;-71
2022/12/10 04:58:19;;;;;;;52.20;13.43;;;0.60;99.90;;;;;;5019339;28;20037;-71
2022/12/10 05:00:44;;;;;;;62.70;15.38;;;0.60;99.90;;;;;;5017746;28;20056;-71
2022/12/10 05:03:10;;;;;;;70.43;15.57;;;0.60;99.90;;;;;;5002490;28;20047;-71
2022/12/10 05:05:36;;;;;;;104.28;17.40;;;0.60;99.90;;;;;;5016979;28;20030;-71
2022/12/10 05:08:01;;;;;;;65.30;15.52;;;0.60;99.90;;;;;;5014758;28;20058;-70
2022/12/10 05:10:27;;;;;;;60.35;15.40;;;0.60;99.90;;;;;;5019495;28;20042;-72
2022/12/10 05:12:53;;;;;;;47.58;14.85;;;0.60;99.90;;;;;;5018499;28;20036;-71
2022/12/10 05:15:18;;;;;;;79.20;15.60;;;0.60;99.90;;;;;;5001375;28;20167;-71
2022/12/10 05:17:44;;;;;;;49.13;13.13;;;0.60;99.90;;;;;;5001465;28;20049;-71
2022/12/10 05:20:10;;;;;;;86.03;14.50;;;0.60;99.90;;;;;;4999923;28;20582;-71
2022/12/10 05:25:20;;;;;;;59.15;13.15;;;0.60;99.90;;;;;;5015635;28;20053;-71
2022/12/10 05:27:46;;;;;;;37.60;11.43;;;0.50;99.90;;;;;;5017814;28;20053;-71
2022/12/10 05:30:11;;;;;;;73.68;13.30;;;0.50;99.90;;;;;;5002431;28;20037;-71
2022/12/10 05:32:37;;;;;;;52.60;12.93;;;0.50;99.90;;;;;;4998510;28;20034;-71
2022/12/10 05:35:04;;;;;;;57.47;13.02;;;0.50;99.90;;;;;;5002180;28;20164;-71
2022/12/10 05:37:30;;;;;;;68.50;12.85;;;0.60;99.90;;;;;;4998820;28;20052;-71
2022/12/10 05:39:55;;;;;;;54.08;12.52;;;0.50;99.90;;;;;;5018559;28;20042;-71
2022/12/10 05:42:21;;;;;;;55.00;13.88;;;0.50;99.90;;;;;;5000053;28;20030;-71
2022/12/10 05:44:46;;;;;;;68.55;13.02;;;0.60;99.90;;;;;;5018548;28;20033;-71
2022/12/10 05:47:12;;;;;;;64.60;12.23;;;0.60;99.90;;;;;;5000130;28;20079;-71
2022/12/10 05:49:37;;;;;;;44.78;12.48;;;0.60;99.90;;;;;;4998960;28;20084;-71
2022/12/10 05:52:03;;;;;;;81.63;13.13;;;0.50;99.90;;;;;;5000977;28;20084;-70
2022/12/10 05:54:28;;;;;;;67.22;12.30;;;0.50;99.90;;;;;;4999192;28;20034;-71
2022/12/10 05:56:54;;;;;;;85.63;12.40;;;0.50;99.90;;;;;;5019160;28;20410;-71
2022/12/10 05:59:20;;;;;;;48.28;11.15;;;0.50;99.90;;;;;;5017794;28;20041;-72
2022/12/10 06:01:45;;;;;;;46.40;11.93;;;0.50;99.90;;;;;;5017858;28;20554;-72
2022/12/10 06:04:12;;;;;;;41.85;11.48;;;0.50;99.90;;;;;;5016235;28;20758;-72
2022/12/10 06:06:38;;;;;;;62.50;15.43;;;0.50;99.90;;;;;;5013831;28;20026;-71
2022/12/10 06:09:06;;;;;;;37.05;12.07;;;0.50;99.90;;;;;;5016763;28;20032;-71
2022/12/10 06:11:31;;;;;;;77.88;13.05;;;0.50;99.90;;;;;;4998678;28;20053;-71
2022/12/10 06:13:58;;;;;;;67.43;13.70;;;0.50;99.90;;;;;;5022996;28;20483;-71
2022/12/10 06:16:25;;;;;;;45.72;11.43;;;0.50;99.90;;;;;;5020652;28;20026;-70
2022/12/10 06:18:51;;;;;;;50.97;12.60;;;0.40;99.90;;;;;;5021116;28;20116;-71
2022/12/10 06:21:18;;;;;;;64.95;11.93;;;0.50;99.90;;;;;;5017762;28;20455;-71
2022/12/10 06:23:44;;;;;;;41.83;12.25;;;0.50;99.90;;;;;;5016296;28;20038;-70
2022/12/10 06:26:13;;;;;;;60.60;12.23;;;0.50;99.90;;;;;;5018959;28;20034;-70
2022/12/10 06:28:39;;;;;;;69.72;13.65;;;0.50;99.90;;;;;;5021388;28;22715;-71
2022/12/10 06:31:05;;;;;;;49.13;12.52;;;0.50;99.90;;;;;;5024938;28;20486;-71
2022/12/10 06:33:32;;;;;;;46.30;13.77;;;0.50;99.90;;;;;;4998341;28;20116;-72
2022/12/10 06:35:58;;;;;;;69.20;12.80;;;0.50;99.90;;;;;;5000591;28;20163;-71
2022/12/10 06:38:24;;;;;;;57.45;12.60;;;0.50;99.90;;;;;;5018313;28;20045;-71
2022/12/10 06:40:50;;;;;;;56.35;11.65;;;0.50;99.90;;;;;;5010518;28;20034;-70
2022/12/10 06:43:15;;;;;;;61.85;13.63;;;0.50;99.90;;;;;;5012961;28;20045;-70
2022/12/10 06:45:42;;;;;;;113.45;14.82;;;0.50;99.90;;;;;;5015970;28;20034;-70
2022/12/10 06:48:08;;;;;;;31.67;9.60;;;0.50;99.90;;;;;;5018902;28;20109;-71
2022/12/10 06:50:34;;;;;;;42.90;12.50;;;0.50;99.90;;;;;;5008500;28;20125;-71
2022/12/10 06:53:00;;;;;;;49.90;11.23;;;0.40;99.90;;;;;;5019236;28;20184;-71
2022/12/10 06:55:25;;;;;;;48.50;11.43;;;0.40;99.90;;;;;;4998860;28;20063;-71
2022/12/10 06:57:52;;;;;;;58.28;12.20;;;0.40;99.90;;;;;;5013243;28;20045;-72
2022/12/10 07:00:19;;;;;;;58.35;11.45;;;0.50;99.90;;;;;;5017869;28;20571;-71
2022/12/10 07:02:44;;;;;;;41.50;10.80;;;0.50;99.90;;;;;;5016499;28;20045;-72
2022/12/10 07:05:10;;;;;;;55.58;12.98;;;0.50;99.90;;;;;;5016625;28;20049;-72
2022/12/10 07:07:36;;;;;;;46.53;10.90;;;0.50;99.90;;;;;;5017571;28;20033;-72
2022/12/10 07:10:03;;;;;;;52.88;12.20;;;0.50;99.90;;;;;;5002909;28;20085;-72
2022/12/10 07:12:28;;;;;;;54.35;13.65;;;0.50;99.90;;;;;;5017965;28;20029;-71
2022/12/10 07:14:54;;;;;;;45.20;12.00;;;0.50;99.90;;;;;;4996746;28;20051;-71
2022/12/10 07:17:20;;;;;;;32.72;11.60;;;0.50;99.90;;;;;;5016841;28;20073;-72
2022/12/10 07:19:45;;;;;;;38.80;11.70;;;0.60;99.90;;;;;;5014855;28;20037;-71
2022/12/10 07:22:11;;;;;;;46.85;12.23;;;0.60;99.90;;;;;;5015375;28;20739;-72
2022/12/10 07:24:36;;;;;;;32.75;11.05;;;0.60;99.90;;;;;;5016362;28;20535;-71
2022/12/10 07:27:05;;;;;;;35.17;12.15;;;0.60;99.90;;;;;;5007457;28;20113;-72
2022/12/10 07:29:31;;;;;;;45.35;10.93;;;0.60;99.90;;;;;;5013431;28;20108;-72
2022/12/10 07:31:57;;;;;;;40.70;11.82;;;0.60;99.90;;;;;;5016476;28;20489;-72
2022/12/10 07:34:22;;;;;;;59.40;12.88;;;0.60;99.90;;;;;;5014480;28;20041;-71
2022/12/10 07:36:48;;;;;;;35.58;11.57;;;0.60;99.90;;;;;;4994116;28;20042;-72
2022/12/10 07:39:17;;;;;;;35.05;10.98;;;0.60;99.90;;;;;;5014092;28;20069;-72
2022/12/10 07:41:44;;;;;;;63.95;12.65;;;0.60;99.90;;;;;;5015118;28;20029;-71
2022/12/10 07:44:12;;;;;;;44.63;11.70;;;0.60;99.90;;;;;;5015441;28;20041;-72
2022/12/10 07:46:38;;;;;;;33.28;10.25;;;0.60;99.90;;;;;;5015831;28;20821;-71
2022/12/10 07:49:04;;;;;;;39.90;14.02;;;0.60;99.90;;;;;;4997102;28;20041;-72
2022/12/10 07:51:29;;;;;;;45.60;12.60;;;0.60;99.90;;;;;;5016396;28;20041;-71
2022/12/10 07:53:55;;;;;;;63.10;14.10;;;0.60;99.90;;;;;;5014193;28;20058;-72
2022/12/10 07:56:23;;;;;;;65.30;13.63;;;0.60;99.90;;;;;;4995778;28;20033;-72
2022/12/10 07:58:49;;;;;;;61.53;12.93;;;0.60;99.90;;;;;;5017199;28;20045;-72
2022/12/10 08:01:18;;;;;;;50.53;12.98;;;0.60;99.90;;;;;;5006599;28;20022;-71
2022/12/10 08:03:44;;;;;;;61.50;14.93;;;0.60;99.90;;;;;;5009928;28;20029;-71
2022/12/10 08:06:13;;;;;;;73.03;14.48;;;0.60;99.90;;;;;;5016736;28;20750;-71
2022/12/10 08:08:39;;;;;;;60.75;15.43;;;0.60;99.90;;;;;;5016436;28;20042;-72
2022/12/10 08:11:06;;;;;;;76.45;14.18;;;0.60;99.90;;;;;;5019173;28;20026;-71
2022/12/10 08:13:32;;;;;;;85.72;13.82;;;0.60;99.90;;;;;;5017827;28;20503;-72
2022/12/10 08:16:06;;;;;;;56.10;14.07;;;0.60;99.90;;;;;;5002094;28;20069;-71
2022/12/10 08:18:33;;;;;;;55.55;11.45;;;0.60;99.90;;;;;;5014041;28;20038;-71
2022/12/10 08:21:02;;;;;;;41.28;12.43;;;0.60;99.90;;;;;;5019749;28;20413;-71
2022/12/10 08:23:28;;;;;;;45.40;12.43;;;0.60;99.90;;;;;;5017050;28;20069;-71
2022/12/10 08:25:53;;;;;;;49.17;12.85;;;0.60;99.90;;;;;;5020094;28;20042;-71
2022/12/10 08:28:19;;;;;;;49.40;13.48;;;0.60;99.90;;;;;;5018000;28;20058;-71
2022/12/10 08:30:48;;;;;;;45.60;11.60;;;0.60;99.90;;;;;;5016278;28;20030;-70
2022/12/10 08:33:15;;;;;;;48.05;12.85;;;0.60;99.90;;;;;;5021464;28;20045;-71
2022/12/10 08:35:41;;;;;;;43.00;12.68;;;0.60;99.90;;;;;;5018842;28;20407;-71
2022/12/10 08:38:06;;;;;;;33.38;10.23;;;0.60;99.90;;;;;;5000118;28;20040;-71
2022/12/10 08:40:32;;;;;;;35.72;11.18;;;0.60;99.90;;;;;;5019084;28;20033;-71
2022/12/10 08:42:57;;;;;;;40.00;11.77;;;0.60;99.90;;;;;;5016516;28;20030;-71
2022/12/10 08:45:23;;;;;;;39.78;12.38;;;0.50;99.90;;;;;;5014935;28;20494;-70
2022/12/10 08:47:48;;;;;;;49.72;13.80;;;0.60;99.90;;;;;;5016071;28;20072;-70
2022/12/10 08:50:14;;;;;;;39.85;13.05;;;0.60;99.90;;;;;;5001614;28;20045;-70
2022/12/10 08:52:40;;;;;;;60.78;14.15;;;0.60;99.90;;;;;;5017587;28;20039;-71
2022/12/10 08:55:05;;;;;;;47.20;14.48;;;0.60;99.90;;;;;;5018228;28;20399;-70
2022/12/10 08:57:31;;;;;;;48.38;14.80;;;0.60;99.90;;;;;;5018413;28;20124;-71
2022/12/10 08:59:57;;;;;;;49.38;15.48;;;0.60;99.90;;;;;;5016886;28;20033;-71
2022/12/10 09:02:22;;;;;;;49.08;13.98;;;0.60;99.90;;;;;;5016175;28;20072;-72
2022/12/10 09:04:50;;;;;;;47.67;12.60;;;0.70;99.90;;;;;;5019789;28;20042;-71
2022/12/10 09:07:16;;;;;;;46.67;14.57;;;0.70;99.90;;;;;;5017433;28;20108;-71
2022/12/10 09:09:41;;;;;;;49.63;13.73;;;0.70;99.90;;;;;;5011796;28;20072;-72
2022/12/10 09:12:07;;;;;;;48.97;14.73;;;0.70;99.90;;;;;;5018738;28;20030;-71
2022/12/10 09:14:32;;;;;;;49.67;13.50;;;0.70;99.90;;;;;;5018772;28;20029;-70
2022/12/10 09:16:58;;;;;;;55.13;15.18;;;0.60;99.90;;;;;;4999552;28;20090;-71
2022/12/10 09:19:23;;;;;;;49.53;14.00;;;0.60;99.90;;;;;;5018250;28;20048;-70
2022/12/10 09:21:49;;;;;;;39.28;12.00;;;0.60;99.90;;;;;;4998922;28;20030;-72
2022/12/10 09:24:15;;;;;;;37.90;12.50;;;0.60;99.90;;;;;;5017452;28;20041;-72
2022/12/10 09:26:40;;;;;;;40.47;13.32;;;0.60;99.90;;;;;;5012790;28;20120;-71
2022/12/10 09:29:06;;;;;;;49.92;14.80;;;0.60;99.90;;;;;;5014056;28;20055;-71
2022/12/10 09:31:31;;;;;;;46.92;13.13;;;0.60;99.90;;;;;;5018135;28;20071;-70
2022/12/10 09:33:57;;;;;;;77.13;14.65;;;0.60;99.90;;;;;;5019171;28;20045;-71
2022/12/10 09:36:22;;;;;;;45.97;13.98;;;0.60;99.90;;;;;;5015368;28;20032;-70
2022/12/10 09:38:48;;;;;;;46.47;14.02;;;0.60;99.90;;;;;;4993591;28;20742;-72
2022/12/10 09:41:29;;;;;;;47.08;14.60;;;0.60;99.90;;;;;;5016426;28;20034;-72
2022/12/10 09:44:27;;;;;;;54.55;13.68;;;0.60;99.90;;;;;;5012101;28;20034;-72
2022/12/10 09:46:58;;;;;;;43.22;13.23;;;0.70;99.90;;;;;;4926787;28;20060;-72
2022/12/10 09:49:37;;;;;;;47.53;13.95;;;0.70;99.90;;;;;;5002387;28;20404;-71
2022/12/10 09:52:06;;;;;;;49.88;13.90;;;0.70;99.90;;;;;;4998748;28;20546;-70
2022/12/10 09:54:37;;;;;;;53.38;14.38;;;0.70;99.90;;;;;;5016958;28;20055;-72
2022/12/10 09:57:05;;;;;;;48.80;14.00;;;0.70;99.90;;;;;;5015088;28;20043;-72
2022/12/10 09:59:49;;;;;;;56.38;14.23;;;0.70;99.90;;;;;;5016597;28;20084;-71
2022/12/10 10:02:30;;;;;;;55.33;14.55;;;0.70;99.90;;;;;;5023702;28;20040;-71
2022/12/10 10:05:07;;;;;;;54.00;14.45;;;0.70;99.90;;;;;;5014951;28;20045;-71
2022/12/10 10:07:37;;;;;;;74.25;15.63;;;0.70;99.90;;;;;;5017059;28;20038;-70
2022/12/10 10:10:05;;;;;;;;;;;0.70;99.90;;;;;;5011211;28;20259;-70
2022/12/10 10:12:33;;;;;;;86.40;15.45;;;0.70;99.90;;;;;;5016958;28;19917;-71
2022/12/10 10:15:11;;;;;;;42.53;12.63;;;0.70;99.90;;;;;;5015235;28;20124;-71
2022/12/10 10:17:38;;;;;;;46.85;15.15;;;0.70;99.90;;;;;;5015790;28;20470;-72
2022/12/10 10:20:04;;;;;;;46.17;14.48;;;0.70;99.90;;;;;;5014773;28;20040;-72
2022/12/10 10:22:31;;;;;;;53.33;14.60;;;0.70;99.90;;;;;;5015801;28;20120;-72
2022/12/10 10:24:58;;;;;;;39.75;13.27;;;0.70;99.90;;;;;;5017676;28;20352;-72
2022/12/10 10:27:28;;;;;;;55.58;14.05;;;0.70;99.90;;;;;;5017046;28;20064;-70
2022/12/10 10:29:56;;;;;;;58.15;13.65;;;0.70;99.90;;;;;;5017475;28;20087;-70
2022/12/10 10:32:40;;;;;;;47.78;13.27;;;0.80;99.90;;;;;;5014774;28;20026;-70
2022/12/10 10:35:06;;;;;;;52.03;12.48;;;0.80;99.90;;;;;;5017655;28;20133;-70
2022/12/10 10:37:35;;;;;;;51.47;13.85;;;0.80;99.90;;;;;;5016718;28;20029;-70
2022/12/10 10:40:01;;;;;;;47.25;12.57;;;0.90;99.90;;;;;;5015559;28;20091;-71
2022/12/10 10:42:38;;;;;;;48.78;13.52;;;0.80;99.90;;;;;;5010905;28;20045;-70
2022/12/10 10:45:06;;;;;;;48.70;12.88;;;0.80;99.90;;;;;;5015522;28;20508;-71
2022/12/10 10:47:34;;;;;;;48.55;14.00;;;0.80;99.90;;;;;;4998456;28;20076;-70
2022/12/10 10:50:00;;;;;;;46.47;13.55;;;0.90;99.90;;;;;;5016511;28;20053;-70
2022/12/10 10:52:36;;;;;;;55.67;15.75;;;0.80;99.90;;;;;;5015192;28;20113;-70
2022/12/10 10:55:01;;;;;;;52.17;14.82;;;0.80;99.90;;;;;;4998094;28;20144;-71
2022/12/10 10:57:33;;;;;;;63.40;16.33;;;0.80;99.90;;;;;;5014323;28;20109;-71
2022/12/10 11:00:22;;;;;;;47.53;13.55;;;0.90;99.90;;;;;;5016431;28;20037;-70
2022/12/10 11:02:47;;;;;;;56.72;15.05;;;0.80;99.90;;;;;;5010608;28;20109;-71
2022/12/10 11:05:26;;;;;;;58.80;15.88;;;0.90;99.90;;;;;;5000165;28;20132;-70
2022/12/10 11:08:04;;;;;;;49.88;15.18;;;0.80;99.90;;;;;;5011069;28;20030;-72
2022/12/10 11:10:30;;;;;;;53.38;15.68;;;0.90;99.90;;;;;;5013641;28;20078;-71
2022/12/10 11:13:17;;;;;;;50.13;14.35;;;0.90;99.90;;;;;;5017726;28;20037;-71
2022/12/10 11:15:44;;;;;;;63.63;15.57;;;0.90;99.90;;;;;;5009126;28;20052;-71
2022/12/10 11:18:32;;;;;;;61.20;16.65;;;0.90;99.90;;;;;;5014331;28;20076;-71
2022/12/10 11:21:21;;;;;;;71.57;17.40;;;0.90;99.90;;;;;;5013356;28;20033;-70
2022/12/10 11:23:52;;;;;;;56.78;16.38;;;0.90;99.90;;;;;;5010554;28;20038;-70
2022/12/10 11:26:33;;;;;;;;;;;0.90;99.90;;;;;;5018241;28;20061;-72
2022/12/10 11:29:30;;;;;;;63.15;14.63;;;0.90;99.90;;;;;;5013417;28;19913;-69
2022/12/10 11:32:14;;;;;;;53.95;12.85;;;0.90;99.90;;;;;;5014016;28;20494;-70
2022/12/10 11:35:04;;;;;;;54.53;14.65;;;0.90;99.90;;;;;;5013803;28;20034;-69
2022/12/10 11:37:32;;;;;;;52.43;14.43;;;0.90;99.90;;;;;;5016823;28;20145;-69
2022/12/10 11:40:04;;;;;;;47.30;15.95;;;0.90;99.90;;;;;;5019168;28;20818;-69
2022/12/10 11:42:35;;;;;;;64.63;15.98;;;0.90;99.90;;;;;;5019866;28;20136;-70
2022/12/10 11:45:17;;;;;;;52.08;15.18;;;0.90;99.90;;;;;;4999775;28;20512;-70
2022/12/10 11:48:06;;;;;;;57.95;16.17;;;0.90;99.90;;;;;;5010503;28;20091;-70
2022/12/10 11:50:47;;;;;;;56.08;14.25;;;0.90;99.90;;;;;;5017883;28;20038;-70
2022/12/10 11:53:15;;;;;;;;;;;0.90;99.90;;;;;;5015390;28;20030;-70
2022/12/10 11:55:43;;;;;;;56.80;12.93;;;0.90;99.90;;;;;;5015245;28;19924;-71
2022/12/10 11:58:55;;;;;;;48.85;13.65;;;0.90;99.90;;;;;;5019113;28;20042;-69
2022/12/10 12:01:35;;;;;;;46.97;14.80;;;0.90;99.90;;;;;;5021147;28;20064;-70
2022/12/10 12:04:22;;;;;;;64.80;14.73;;;0.90;99.90;;;;;;5024650;28;20065;-71
2022/12/10 12:07:03;;;;;;;49.10;13.02;;;0.80;99.90;;;;;;5018941;28;20033;-70
2022/12/10 12:09:43;;;;;;;;;;;0.90;99.90;;;;;;5026303;28;20038;-70
2022/12/10 12:12:34;;;;;;;40.00;11.93;;;0.90;99.90;;;;;;5010076;28;19925;-70
2022/12/10 12:15:17;;;;;;;48.90;13.65;;;0.90;99.90;;;;;;5010258;28;20092;-71
2022/12/10 12:17:49;;;;;;;45.75;14.07;;;0.90;99.90;;;;;;5017663;28;20224;-71
2022/12/10 12:20:31;;;;;;;54.42;16.00;;;1.00;99.90;;;;;;5025859;28;20033;-71
2022/12/10 12:23:04;;;;;;;57.25;13.48;;;1.00;99.90;;;;;;5015467;28;20122;-71
2022/12/10 12:25:38;;;;;;;53.13;14.80;;;1.10;99.90;;;;;;5034531;28;20509;-71
2022/12/10 12:28:26;;;;;;;49.85;15.05;;;1.10;99.90;;;;;;5031042;28;20045;-71
2022/12/10 12:31:21;;;;;;;49.63;15.10;;;1.10;99.90;;;;;;5018265;28;20042;-70
2022/12/10 12:34:04;;;;;;;47.33;13.05;;;1.10;99.90;;;;;;5008546;28;20094;-71
2022/12/10 12:36:36;;;;;;;47.97;13.27;;;1.20;99.90;;;;;;5022395;28;20050;-71
2022/12/10 12:39:11;;;;;;;47.53;12.85;;;1.20;99.90;;;;;;5017999;28;20033;-72
2022/12/10 12:41:47;;;;;;;47.97;11.88;;;1.10;99.90;;;;;;5004646;28;20037;-70
2022/12/10 12:44:31;;;;;;;42.20;12.55;;;1.20;99.90;;;;;;5002521;28;20039;-71
2022/12/10 12:47:18;;;;;;;43.35;13.95;;;1.10;99.90;;;;;;5001321;28;20034;-70
2022/12/10 12:49:44;;;;;;;54.08;14.85;;;1.10;99.90;;;;;;5012783;28;20038;-71
2022/12/10 12:52:13;;;;;;;46.42;14.05;;;1.10;99.90;;;;;;5016810;28;20046;-71
2022/12/10 12:54:40;;;;;;;50.67;14.35;;;1.20;99.90;;;;;;5013040;28;20038;-71
2022/12/10 12:57:20;;;;;;;48.00;13.18;;;1.20;99.90;;;;;;5019318;28;20038;-71
2022/12/10 13:00:17;;;;;;;43.03;12.80;;;1.20;99.90;;;;;;4994909;28;20041;-70
2022/12/10 13:02:55;;;;;;;54.80;13.27;;;1.10;99.90;;;;;;5013072;28;20342;-71
2022/12/10 13:05:36;;;;;;;48.47;14.23;;;1.10;99.90;;;;;;5017779;28;20089;-71
2022/12/10 13:08:17;;;;;;;46.92;14.27;;;1.10;99.90;;;;;;5014605;28;20080;-70